Time;durP1;ratioP1;P1;durP2;ratioP2;P2;SDS_P1;SDS_P2;PMS_P1;PMS_P2;Temp;Humidity;BMP_temperature;BMP_pressure;BME280_temperature;BME280_humidity;BME280_pressure;Samples;Min_cycle;Max_cycle;Signal;HPM_P1;HPM_P2
2022/12/23 00:02:16;;;;;;;60.00;26.40;;;;;;;4.51;100.00;99683.44;5005826;28;20097;-71
2022/12/23 00:04:42;;;;;;;63.90;24.50;;;;;;;4.50;100.00;99684.44;5014425;28;20041;-71
2022/12/23 00:07:07;;;;;;;73.28;25.70;;;;;;;4.51;100.00;99683.44;5013671;28;20034;-72
2022/12/23 00:09:33;;;;;;;88.73;35.53;;;;;;;4.54;100.00;99684.97;5015908;28;20491;-71
2022/12/23 00:17:26;;;;;;;79.90;31.40;;;;;;;4.74;100.00;99689.13;5016437;28;20045;-72
2022/12/23 00:19:51;;;;;;;80.87;31.97;;;;;;;4.73;100.00;99679.56;5013597;28;20030;-71
2022/12/23 00:22:16;;;;;;;77.00;27.87;;;;;;;4.79;100.00;99680.75;5014577;28;20120;-71
2022/12/23 00:24:42;;;;;;;66.97;27.53;;;;;;;4.81;100.00;99678.78;5014267;28;20029;-72
2022/12/23 00:27:07;;;;;;;71.77;27.07;;;;;;;4.81;100.00;99681.44;5013535;28;20029;-72
2022/12/23 00:29:32;;;;;;;80.70;31.27;;;;;;;4.82;100.00;99680.44;5002787;28;20518;-70
2022/12/23 00:31:58;;;;;;;74.33;29.83;;;;;;;4.86;100.00;99676.50;4995284;28;20487;-72
2022/12/23 00:34:23;;;;;;;75.10;29.80;;;;;;;4.89;100.00;99675.38;5014726;28;20447;-72
2022/12/23 00:36:48;;;;;;;77.90;29.47;;;;;;;4.87;100.00;99678.19;5013369;28;20120;-72
2022/12/23 00:44:41;;;;;;;96.93;34.25;;;;;;;4.86;100.00;99665.94;5016173;28;20091;-71
2022/12/23 00:49:40;;;;;;;82.70;32.33;;;;;;;4.85;100.00;99665.13;5020743;28;20041;-71
2022/12/23 00:49:52;;;;;;;74.50;31.75;;;;;;;4.83;100.00;99666.25;5016228;28;20096;-72
2022/12/23 00:52:17;;;;;;;78.43;30.30;;;;;;;4.90;100.00;99672.59;5018381;28;20034;-72
2022/12/23 00:54:43;;;;;;;71.70;30.87;;;;;;;4.91;100.00;99673.41;5018302;28;20029;-72
2022/12/23 00:57:08;;;;;;;78.23;27.73;;;;;;;4.93;100.00;99667.00;5017408;28;20026;-72
2022/12/23 00:59:34;;;;;;;73.85;29.75;;;;;;;4.92;100.00;99670.63;5020051;28;20037;-72
2022/12/23 01:07:27;;;;;;;79.05;29.15;;;;;;;4.91;100.00;99668.13;5018663;28;20044;-71
2022/12/23 01:09:53;;;;;;;81.40;31.20;;;;;;;4.98;100.00;99663.88;5022749;28;20033;-72
2022/12/23 01:12:18;;;;;;;75.53;29.97;;;;;;;4.89;100.00;99655.03;5000494;28;20029;-72
2022/12/23 01:14:44;;;;;;;83.37;30.30;;;;;;;4.89;100.00;99648.94;5003269;28;20037;-72
2022/12/23 01:17:10;;;;;;;81.65;33.15;;;;;;;4.83;100.00;99653.03;5016929;28;20546;-72
2022/12/23 01:19:35;;;;;;;84.60;32.95;;;;;;;4.85;100.00;99651.88;5018794;28;20119;-71
2022/12/23 01:22:01;;;;;;;77.10;30.27;;;;;;;4.94;100.00;99657.22;5015956;28;20026;-71
2022/12/23 01:24:30;;;;;;;88.30;31.33;;;;;;;4.93;100.00;99653.75;5010323;28;20292;-71
2022/12/23 01:26:56;;;;;;;84.60;29.77;;;;;;;4.91;100.00;99655.72;4998047;28;20022;-71
2022/12/23 01:29:21;;;;;;;82.88;31.50;;;;;;;4.91;100.00;99653.09;5009265;28;20112;-71
2022/12/23 01:31:47;;;;;;;83.35;31.27;;;;;;;4.89;100.00;99654.22;5007661;28;20510;-71
2022/12/23 01:34:12;;;;;;;83.20;34.20;;;;;;;4.92;100.00;99654.75;5008489;28;20022;-71
2022/12/23 01:36:37;;;;;;;83.57;30.67;;;;;;;4.86;100.00;99658.00;5004167;28;20068;-71
2022/12/23 01:39:03;;;;;;;80.03;31.23;;;;;;;4.90;100.00;99659.38;5015908;28;20491;-72
2022/12/23 01:44:51;;;;;;;87.35;33.20;;;;;;;4.89;100.00;99654.22;5017242;28;20130;-71
2022/12/23 01:47:26;;;;;;;88.03;32.70;;;;;;;4.85;100.00;99659.00;5018948;28;20034;-71
2022/12/23 01:50:04;;;;;;;81.40;32.35;;;;;;;4.91;100.00;99647.78;5014709;28;20046;-71
2022/12/23 01:52:33;;;;;;;100.60;36.38;;;;;;;4.90;100.00;99648.78;5017181;28;20053;-71
2022/12/23 01:54:58;;;;;;;83.72;33.63;;;;;;;4.85;100.00;99643.13;5015567;28;20391;-72
2022/12/23 01:57:24;;;;;;;89.60;33.38;;;;;;;4.88;100.00;99645.47;5016935;28;20042;-72
2022/12/23 02:05:21;;;;;;;84.78;34.67;;;;;;;4.87;100.00;99641.16;5008130;28;20099;-71
2022/12/23 02:10:46;;;;;;;93.45;32.97;;;;;;;4.86;100.00;99645.59;5017282;28;20041;-70
2022/12/23 02:13:30;;;;;;;93.80;34.60;;;;;;;4.88;100.00;99634.06;5016341;28;20041;-71
2022/12/23 02:16:16;;;;;;;92.70;33.67;;;;;;;4.86;100.00;99635.03;5014081;28;20030;-72
2022/12/23 02:18:56;;;;;;;91.35;34.17;;;;;;;4.87;100.00;99641.16;5015187;28;20545;-71
2022/12/23 02:21:33;;;;;;;92.05;35.08;;;;;;;4.87;100.00;99638.53;5016800;28;20095;-71
2022/12/23 02:24:26;;;;;;;103.97;36.65;;;;;;;4.83;100.00;99640.63;5014912;28;20453;-72
2022/12/23 02:27:10;;;;;;;99.72;35.28;;;;;;;4.92;100.00;99652.13;5012964;28;20041;-71
2022/12/23 02:30:01;;;;;;;89.47;33.47;;;;;;;4.92;100.00;99646.00;5014483;28;20061;-71
2022/12/23 02:32:39;;;;;;;94.05;35.10;;;;;;;4.91;100.00;99652.25;5017834;28;20068;-71
2022/12/23 02:35:12;;;;;;;108.57;37.17;;;;;;;4.89;100.00;99652.41;5017832;28;20084;-72
2022/12/23 02:37:59;;;;;;;110.43;39.90;;;;;;;4.85;100.00;99649.25;5013383;28;20033;-71
2022/12/23 02:40:38;;;;;;;98.70;34.38;;;;;;;4.88;100.00;99647.28;5007989;28;20052;-71
2022/12/23 02:43:18;;;;;;;104.20;39.03;;;;;;;4.91;100.00;99649.63;5014165;28;20036;-71
2022/12/23 02:46:00;;;;;;;89.10;37.10;;;;;;;4.93;100.00;99669.63;5012896;28;20037;-71
2022/12/23 02:48:53;;;;;;;106.20;35.80;;;;;;;4.95;100.00;99665.03;5017361;28;20713;-71
2022/12/23 02:51:21;;;;;;;107.32;35.63;;;;;;;4.95;100.00;99665.03;5017377;28;20044;-72
2022/12/23 02:53:51;;;;;;;112.45;37.95;;;;;;;4.91;100.00;99661.03;5000664;28;20382;-71
2022/12/23 02:56:19;;;;;;;102.57;36.65;;;;;;;4.97;100.00;99663.06;5015566;28;20068;-72
2022/12/23 02:58:50;;;;;;;120.63;40.00;;;;;;;5.00;100.00;99670.69;5015558;28;20043;-71
2022/12/23 03:01:16;;;;;;;115.72;38.15;;;;;;;5.01;100.00;99667.06;5015045;28;20045;-71
2022/12/23 03:03:44;;;;;;;91.20;34.55;;;;;;;5.06;100.00;99679.84;5015324;28;20032;-71
2022/12/23 03:06:20;;;;;;;96.07;35.38;;;;;;;5.10;100.00;99677.69;5014886;28;20721;-71
2022/12/23 03:08:48;;;;;;;97.55;33.42;;;;;;;5.07;100.00;99674.38;5014960;28;20091;-71
2022/12/23 03:11:16;;;;;;;102.68;35.78;;;;;;;5.05;100.00;99676.34;5006255;28;20091;-72
2022/12/23 03:14:09;;;;;;;96.53;35.58;;;;;;;5.12;100.00;99683.69;5014695;28;20033;-71
2022/12/23 03:16:38;;;;;;;103.18;35.28;;;;;;;5.05;100.00;99679.00;5013711;28;20586;-71
2022/12/23 03:19:22;;;;;;;111.90;36.20;;;;;;;5.00;100.00;99678.63;5013610;28;20029;-72
2022/12/23 03:21:55;;;;;;;107.38;37.05;;;;;;;5.00;100.00;99675.97;5013116;28;20445;-71
2022/12/23 03:24:36;;;;;;;114.40;36.05;;;;;;;4.98;100.00;99667.34;5014899;28;20159;-71
2022/12/23 03:27:20;;;;;;;110.20;38.00;;;;;;;5.05;100.00;99671.06;5013816;28;20480;-71
2022/12/23 03:29:56;;;;;;;98.45;35.35;;;;;;;5.04;100.00;99668.56;5013388;28;20037;-71
2022/12/23 03:32:23;;;;;;;94.57;29.55;;;;;;;5.00;100.00;99670.69;5016123;28;20142;-70
2022/12/23 03:34:52;;;;;;;107.65;38.78;;;;;;;5.02;100.00;99675.84;5014188;28;20033;-71
2022/12/23 03:37:21;;;;;;;108.15;36.55;;;;;;;5.01;100.00;99687.38;5015703;28;20642;-71
2022/12/23 03:39:53;;;;;;;113.10;38.72;;;;;;;5.04;100.00;99685.28;5014679;28;20060;-71
2022/12/23 03:42:27;;;;;;;108.85;38.17;;;;;;;5.05;100.00;99676.34;5006772;28;20029;-71
2022/12/23 03:44:55;;;;;;;113.00;39.03;;;;;;;5.08;100.00;99678.69;5013475;28;20069;-71
2022/12/23 03:47:27;;;;;;;114.90;39.25;;;;;;;5.07;100.00;99668.25;4999704;28;20882;-71
2022/12/23 03:49:57;;;;;;;115.80;39.13;;;;;;;5.05;100.00;99676.34;4997683;28;20129;-72
2022/12/23 03:52:48;;;;;;;116.47;39.83;;;;;;;5.04;100.00;99669.41;5015879;28;20069;-72
2022/12/23 03:55:19;;;;;;;114.18;40.13;;;;;;;5.03;100.00;99673.03;5014117;28;20113;-71
2022/12/23 03:57:52;;;;;;;106.10;37.80;;;;;;;5.10;100.00;99670.59;5014611;28;20037;-72
2022/12/23 04:00:18;;;;;;;111.10;39.15;;;;;;;5.08;100.00;99673.41;5005470;28;20030;-71
2022/12/23 04:03:09;;;;;;;116.20;39.43;;;;;;;4.98;100.00;99680.59;5014556;28;20048;-71
2022/12/23 04:05:38;;;;;;;105.43;38.33;;;;;;;5.00;100.00;99683.91;5012424;28;20304;-72
2022/12/23 04:08:18;;;;;;;108.18;39.95;;;;;;;4.98;100.00;99693.81;5012884;28;20423;-72
2022/12/23 04:10:45;;;;;;;118.72;38.17;;;;;;;4.99;100.00;99681.44;4995271;28;20095;-72
2022/12/23 04:13:11;;;;;;;;;;;;;;;4.96;100.00;99687.84;5013598;28;20044;-71
2022/12/23 04:15:41;;;;;;;138.60;42.63;;;;;;;4.93;100.00;99680.22;5007228;28;19917;-71
2022/12/23 04:18:08;;;;;;;120.22;38.65;;;;;;;4.92;100.00;99683.84;5011595;28;20041;-71
2022/12/23 04:20:34;;;;;;;118.53;38.00;;;;;;;4.96;100.00;99687.00;5012598;28;20041;-71
2022/12/23 04:22:59;;;;;;;132.02;41.53;;;;;;;4.90;100.00;99677.88;5009080;28;20033;-71
2022/12/23 04:25:25;;;;;;;129.82;43.65;;;;;;;4.84;100.00;99681.94;5015077;28;20456;-71
2022/12/23 04:27:50;;;;;;;116.30;40.60;;;;;;;4.96;100.00;99687.84;5004540;28;20037;-71
2022/12/23 04:30:15;;;;;;;135.67;44.13;;;;;;;4.90;100.00;99695.56;5013991;28;20057;-72
2022/12/23 04:32:41;;;;;;;119.57;40.37;;;;;;;4.89;100.00;99692.06;5014608;28;20046;-71
2022/12/23 04:35:07;;;;;;;122.13;39.22;;;;;;;4.91;100.00;99695.41;5003705;28;20032;-71
2022/12/23 04:37:33;;;;;;;115.90;37.72;;;;;;;4.91;100.00;99694.56;5002640;28;20035;-72
2022/12/23 04:39:58;;;;;;;124.20;42.55;;;;;;;4.91;100.00;99698.03;5003149;28;20045;-71
2022/12/23 04:42:24;;;;;;;150.77;43.90;;;;;;;4.91;100.00;99697.22;5014808;28;20044;-72
2022/12/23 04:44:49;;;;;;;142.75;42.80;;;;;;;4.91;100.00;99705.97;4998244;28;20446;-72
2022/12/23 04:47:14;;;;;;;139.80;43.07;;;;;;;4.84;100.00;99704.94;5013940;28;20047;-72
2022/12/23 04:49:40;;;;;;;136.77;42.87;;;;;;;4.93;100.00;99697.91;5002319;28;20315;-72
2022/12/23 04:52:05;;;;;;;128.73;42.97;;;;;;;4.86;100.00;99697.69;5003726;28;20067;-72
2022/12/23 04:54:31;;;;;;;130.63;41.63;;;;;;;4.88;100.00;99706.28;5015417;28;20389;-71
2022/12/23 04:56:56;;;;;;;147.07;44.53;;;;;;;4.85;100.00;99706.59;5012455;28;20484;-71
2022/12/23 04:59:21;;;;;;;139.97;44.13;;;;;;;4.93;100.00;99708.47;4997445;28;20038;-71
2022/12/23 05:01:47;;;;;;;152.87;46.93;;;;;;;4.92;100.00;99712.94;4988411;28;20488;-71
2022/12/23 05:04:12;;;;;;;134.60;41.23;;;;;;;4.91;100.00;99710.44;5005151;28;20124;-71
2022/12/23 05:06:38;;;;;;;138.32;41.50;;;;;;;4.92;100.00;99712.13;5014339;28;20033;-71
2022/12/23 05:09:04;;;;;;;152.37;43.70;;;;;;;4.86;100.00;99708.25;5008685;28;20033;-72
2022/12/23 05:11:29;;;;;;;137.00;42.63;;;;;;;4.88;100.00;99701.00;5016139;28;20483;-71
2022/12/23 05:13:55;;;;;;;128.07;42.70;;;;;;;4.89;100.00;99712.41;5012804;28;20034;-72
2022/12/23 05:16:20;;;;;;;118.30;41.93;;;;;;;4.91;100.00;99713.91;5003672;28;20030;-71
2022/12/23 05:18:45;;;;;;;116.10;39.90;;;;;;;4.83;100.00;99705.91;5010493;28;20041;-71
2022/12/23 05:21:11;;;;;;;128.20;41.78;;;;;;;4.86;100.00;99705.59;5010800;28;20042;-71
2022/12/23 05:23:36;;;;;;;126.27;40.33;;;;;;;4.86;100.00;99713.53;5013703;28;20067;-72
2022/12/23 05:26:02;;;;;;;126.22;41.75;;;;;;;4.84;100.00;99716.31;5010078;28;20033;-71
2022/12/23 05:28:28;;;;;;;125.03;41.42;;;;;;;4.86;100.00;99726.78;5014540;28;20034;-71
2022/12/23 05:31:04;;;;;;;132.48;42.33;;;;;;;4.86;100.00;99735.53;5023410;28;20034;-71
2022/12/23 05:33:30;;;;;;;121.32;39.83;;;;;;;4.91;100.00;99735.06;5006976;28;20029;-72
2022/12/23 05:35:56;;;;;;;122.60;41.17;;;;;;;4.93;100.00;99740.22;5024783;28;20593;-71
2022/12/23 05:38:22;;;;;;;137.43;42.85;;;;;;;4.89;100.00;99744.97;5001824;28;20386;-71
2022/12/23 05:40:47;;;;;;;118.07;39.75;;;;;;;4.91;100.00;99740.38;5010543;28;20120;-71
2022/12/23 05:43:13;;;;;;;127.65;40.63;;;;;;;4.92;100.00;99738.56;5028357;28;20629;-72
2022/12/23 05:45:39;;;;;;;136.13;41.17;;;;;;;4.89;100.00;99739.69;5014389;28;20034;-71
2022/12/23 05:48:04;;;;;;;135.88;42.20;;;;;;;4.91;100.00;99742.19;5020724;28;20105;-72
2022/12/23 05:50:30;;;;;;;120.57;40.55;;;;;;;4.92;100.00;99738.56;5022986;28;20612;-72
2022/12/23 05:52:56;;;;;;;132.83;44.57;;;;;;;4.93;100.00;99735.75;5024395;28;20065;-71
2022/12/23 05:55:21;;;;;;;;;;;;;;;4.93;100.00;99735.75;5027385;28;20443;-71
2022/12/23 05:57:47;;;;;;;133.85;43.72;;;;;;;4.90;100.00;99735.25;5017645;28;19920;-70
2022/12/23 06:00:13;;;;;;;127.80;39.13;;;;;;;4.89;100.00;99750.25;5008778;28;20022;-71
2022/12/23 06:02:38;;;;;;;122.20;39.50;;;;;;;4.90;100.00;99751.13;5022580;28;20029;-71
2022/12/23 06:05:04;;;;;;;147.10;41.22;;;;;;;4.83;100.00;99750.88;5027111;28;20482;-70
2022/12/23 06:07:29;;;;;;;140.80;42.92;;;;;;;4.83;100.00;99759.63;5014932;28;20041;-72
2022/12/23 06:09:55;;;;;;;134.83;40.17;;;;;;;4.85;100.00;99767.44;5024615;28;20029;-70
2022/12/23 06:12:20;;;;;;;122.87;40.17;;;;;;;4.83;100.00;99767.56;5009193;28;20041;-73
2022/12/23 06:14:46;;;;;;;119.93;42.03;;;;;;;4.91;100.00;99768.63;5027628;28;20061;-72
2022/12/23 06:17:11;;;;;;;135.07;42.33;;;;;;;4.92;100.00;99765.03;5027263;28;20040;-75
2022/12/23 06:19:36;;;;;;;125.30;39.13;;;;;;;4.90;100.00;99773.09;5013278;28;20037;-73
2022/12/23 06:22:02;;;;;;;132.57;39.53;;;;;;;4.88;100.00;99769.78;5007568;28;20434;-70
2022/12/23 06:24:27;;;;;;;139.07;41.03;;;;;;;4.84;100.00;99763.09;5006304;28;20477;-70
2022/12/23 06:26:52;;;;;;;134.37;47.63;;;;;;;4.90;100.00;99767.81;5011243;28;20053;-73
2022/12/23 06:29:18;;;;;;;128.33;39.27;;;;;;;4.88;100.00;99751.25;5005096;28;20056;-70
2022/12/23 06:31:43;;;;;;;127.40;40.40;;;;;;;4.88;100.00;99750.44;5019326;28;20483;-71
2022/12/23 06:34:09;;;;;;;125.27;39.43;;;;;;;4.86;100.00;99750.56;5013277;28;20108;-73
2022/12/23 06:36:34;;;;;;;105.10;35.70;;;;;;;4.88;100.00;99747.78;5019024;28;20033;-71
2022/12/23 06:38:59;;;;;;;113.57;39.27;;;;;;;4.88;100.00;99750.44;5013415;28;20049;-71
2022/12/23 06:41:24;;;;;;;123.20;37.40;;;;;;;4.84;100.00;99749.88;5015592;28;20037;-74
2022/12/23 06:43:50;;;;;;;121.03;39.33;;;;;;;4.89;100.00;99760.84;5015393;28;20049;-71
2022/12/23 06:46:15;;;;;;;121.97;34.70;;;;;;;4.90;100.00;99767.00;5016389;28;20168;-71
2022/12/23 06:48:40;;;;;;;97.33;33.77;;;;;;;4.92;100.00;99765.03;5021488;28;20069;-71
2022/12/23 06:51:06;;;;;;;105.00;34.80;;;;;;;4.91;100.00;99761.53;5007407;28;20069;-72
2022/12/23 06:53:31;;;;;;;116.23;37.90;;;;;;;4.89;100.00;99758.19;4996454;28;20038;-72
2022/12/23 06:56:01;;;;;;;117.90;35.87;;;;;;;4.89;100.00;99771.41;5019709;28;20048;-72
2022/12/23 06:58:26;;;;;;;109.05;36.38;;;;;;;4.85;100.00;99770.91;5019384;28;20095;-71
2022/12/23 07:00:52;;;;;;;118.35;37.45;;;;;;;4.86;100.00;99782.31;5013157;28;20443;-71
2022/12/23 07:03:17;;;;;;;122.22;37.10;;;;;;;4.85;100.00;99780.66;5018754;28;20038;-71
2022/12/23 07:05:46;;;;;;;124.93;39.57;;;;;;;4.86;100.00;99783.13;5008969;28;20107;-72
2022/12/23 07:08:12;;;;;;;133.02;38.67;;;;;;;4.88;100.00;99784.81;5015394;28;20042;-72
2022/12/23 07:10:37;;;;;;;119.13;35.30;;;;;;;4.91;100.00;99784.50;5012155;28;20047;-71
2022/12/23 07:13:02;;;;;;;132.47;38.63;;;;;;;4.92;100.00;99789.66;5009450;28;20164;-72
2022/12/23 07:15:28;;;;;;;127.17;40.80;;;;;;;4.90;100.00;99794.25;5013321;28;20113;-72
2022/12/23 07:17:53;;;;;;;135.35;42.13;;;;;;;4.91;100.00;99801.19;5019035;28;20037;-71
2022/12/23 07:20:19;;;;;;;141.70;42.67;;;;;;;4.93;100.00;99804.53;5008063;28;20099;-71
2022/12/23 07:22:44;;;;;;;150.33;44.20;;;;;;;4.90;100.00;99794.25;5006222;28;20041;-71
2022/12/23 07:25:10;;;;;;;158.32;44.78;;;;;;;4.92;100.00;99796.78;5006265;28;20029;-71
2022/12/23 07:27:35;;;;;;;161.13;45.42;;;;;;;4.90;100.00;99802.19;5008496;28;20045;-71
2022/12/23 07:30:01;;;;;;;156.45;43.30;;;;;;;4.92;100.00;99808.19;5005722;28;20544;-71
2022/12/23 07:32:26;;;;;;;140.77;43.08;;;;;;;4.92;100.00;99818.75;5026089;28;20044;-74
2022/12/23 07:34:51;;;;;;;161.47;46.70;;;;;;;4.95;100.00;99818.44;5006743;28;20022;-70
2022/12/23 07:37:17;;;;;;;173.80;45.53;;;;;;;4.93;100.00;99815.13;5020878;28;20094;-70
2022/12/23 07:39:42;;;;;;;161.63;44.87;;;;;;;4.92;100.00;99818.75;5021905;28;20037;-70
2022/12/23 07:42:07;;;;;;;170.73;43.53;;;;;;;4.96;100.00;99817.44;5021780;28;20086;-70
2022/12/23 07:44:33;;;;;;;160.67;44.77;;;;;;;4.95;100.00;99814.97;5009809;28;20053;-72
2022/12/23 07:46:58;;;;;;;158.70;40.10;;;;;;;4.95;100.00;99815.81;5026075;28;20372;-70
2022/12/23 07:49:23;;;;;;;152.30;41.35;;;;;;;4.97;100.00;99808.56;5025390;28;20056;-70
2022/12/23 07:51:49;;;;;;;164.27;41.50;;;;;;;4.98;100.00;99810.19;4991797;28;20045;-73
2022/12/23 07:54:14;;;;;;;150.07;42.70;;;;;;;5.00;100.00;99815.34;5026057;28;20128;-69
2022/12/23 07:56:40;;;;;;;152.67;41.30;;;;;;;5.04;100.00;99822.03;5008766;28;20769;-70
2022/12/23 07:59:05;;;;;;;141.30;41.97;;;;;;;5.04;100.00;99833.44;5012450;28;20025;-74
2022/12/23 08:01:30;;;;;;;143.73;42.60;;;;;;;5.02;100.00;99845.16;5022091;28;20124;-71
2022/12/23 08:03:56;;;;;;;143.13;37.70;;;;;;;5.07;100.00;99851.63;5012672;28;20040;-73
2022/12/23 08:06:21;;;;;;;124.33;39.70;;;;;;;5.07;100.00;99856.94;5020966;28;20034;-73
2022/12/23 08:08:46;;;;;;;134.93;37.30;;;;;;;5.13;100.00;99857.31;5007679;28;20029;-71
2022/12/23 08:11:13;;;;;;;116.53;36.50;;;;;;;5.14;100.00;99859.81;5011955;28;20034;-71
2022/12/23 08:13:42;;;;;;;122.13;33.00;;;;;;;5.20;100.00;99866.34;5005862;28;20081;-70
2022/12/23 08:16:08;;;;;;;120.60;32.85;;;;;;;5.24;100.00;99865.91;5025277;28;20067;-71
2022/12/23 08:18:34;;;;;;;;;;;;;;;5.24;100.00;99868.53;5007611;28;20033;-73
2022/12/23 08:21:02;;;;;;;113.85;33.22;;;;;;;5.18;100.00;99873.59;5009610;28;19913;-72
2022/12/23 08:23:28;;;;;;;111.10;34.38;;;;;;;5.10;100.00;99868.19;5000418;28;20494;-71
2022/12/23 08:26:26;;;;;;;108.45;33.33;;;;;;;5.14;100.00;99866.94;5020034;28;20034;-71
2022/12/23 08:28:52;;;;;;;105.63;32.65;;;;;;;5.15;100.00;99861.50;4980741;28;20049;-73
2022/12/23 08:31:30;;;;;;;112.82;31.98;;;;;;;5.23;100.00;99858.09;5025263;28;20044;-71
2022/12/23 08:33:57;;;;;;;97.00;29.67;;;;;;;5.31;100.00;99862.63;5017243;28;20242;-75
2022/12/23 08:36:25;;;;;;;99.60;30.50;;;;;;;5.27;100.00;99859.47;5018026;28;20034;-71
2022/12/23 08:38:53;;;;;;;92.85;29.35;;;;;;;5.27;100.00;99862.13;5006322;28;20064;-74
2022/12/23 08:41:25;;;;;;;95.70;29.63;;;;;;;5.34;100.00;99862.31;5009740;28;20037;-70
2022/12/23 08:43:50;;;;;;;97.75;30.27;;;;;;;5.31;100.00;99855.53;5002461;28;20033;-73
2022/12/23 08:46:16;;;;;;;100.28;30.65;;;;;;;5.25;100.00;99856.13;5000486;28;20048;-74
2022/12/23 08:48:41;;;;;;;86.80;29.35;;;;;;;5.29;100.00;99862.78;5005962;28;20093;-70
2022/12/23 08:51:10;;;;;;;82.80;27.10;;;;;;;5.29;100.00;99868.06;5007559;28;20038;-72
2022/12/23 08:53:37;;;;;;;88.53;28.25;;;;;;;5.32;100.00;99872.25;5004798;28;20026;-74
2022/12/23 08:56:05;;;;;;;78.45;24.77;;;;;;;5.34;100.00;99870.28;5009034;28;20076;-72
2022/12/23 08:58:34;;;;;;;70.15;23.52;;;;;;;5.35;100.00;99867.47;5007515;28;20033;-70
2022/12/23 09:01:03;;;;;;;78.50;22.95;;;;;;;5.30;100.00;99869.75;5009029;28;20128;-70
2022/12/23 09:03:29;;;;;;;63.95;23.80;;;;;;;5.37;100.00;99875.28;4999782;28;20105;-73
2022/12/23 09:05:54;;;;;;;68.82;21.52;;;;;;;5.29;100.00;99873.34;5016365;28;20468;-70
2022/12/23 09:08:19;;;;;;;62.57;21.37;;;;;;;5.26;100.00;99874.50;5009939;28;20037;-70
2022/12/23 09:10:45;;;;;;;75.77;22.33;;;;;;;5.24;100.00;99875.63;5013924;28;20885;-74
2022/12/23 09:13:11;;;;;;;67.20;20.80;;;;;;;5.26;100.00;99878.97;5009307;28;20913;-70
2022/12/23 09:15:42;;;;;;;73.65;23.50;;;;;;;5.27;100.00;99885.94;5009875;28;20037;-70
2022/12/23 09:18:07;;;;;;;68.22;22.52;;;;;;;5.26;100.00;99886.91;5023680;28;20041;-73
2022/12/23 09:20:33;;;;;;;71.72;20.95;;;;;;;5.18;100.00;99889.47;5011566;28;20091;-72
2022/12/23 09:23:00;;;;;;;65.50;21.83;;;;;;;5.15;100.00;99881.81;5012029;28;20042;-71
2022/12/23 09:25:25;;;;;;;56.40;21.05;;;;;;;5.21;100.00;99891.81;5015023;28;20033;-71
2022/12/23 09:27:50;;;;;;;56.60;19.07;;;;;;;5.23;100.00;99889.84;4995361;28;20037;-71
2022/12/23 09:30:16;;;;;;;58.10;18.17;;;;;;;5.14;100.00;99885.44;5016740;28;20299;-71
2022/12/23 09:32:41;;;;;;;50.10;17.90;;;;;;;5.11;100.00;99881.28;5027238;28;20044;-72
2022/12/23 09:35:07;;;;;;;59.27;18.20;;;;;;;5.14;100.00;99883.63;5028306;28;20363;-70
2022/12/23 09:37:32;;;;;;;55.20;19.20;;;;;;;5.26;100.00;99882.44;5028208;28;20033;-70
2022/12/23 09:39:57;;;;;;;65.57;21.90;;;;;;;5.35;100.00;99898.41;5010366;28;20025;-74
2022/12/23 09:42:51;;;;;;;48.53;17.53;;;;;;;5.42;100.00;99897.66;5013140;28;20034;-70
2022/12/23 09:45:41;;;;;;;55.13;17.08;;;;;;;5.51;100.00;99893.28;5014563;28;20540;-71
2022/12/23 09:48:13;;;;;;;43.85;17.27;;;;;;;5.46;100.00;99896.38;5010433;28;20571;-71
2022/12/23 09:50:39;;;;;;;57.92;18.73;;;;;;;5.50;100.00;99896.91;5018595;28;20037;-71
2022/12/23 09:53:18;;;;;;;41.80;16.80;;;;;;;5.49;100.00;99890.78;5008687;28;20100;-70
2022/12/23 09:55:56;;;;;;;55.45;18.25;;;;;;;5.49;100.00;99895.25;5023454;28;20387;-71
2022/12/23 09:58:42;;;;;;;47.50;15.55;;;;;;;5.64;100.00;99898.19;5021294;28;20033;-70
2022/12/23 10:01:20;;;;;;;43.70;15.15;;;;;;;5.84;100.00;99904.19;5011724;28;20044;-71
2022/12/23 10:04:20;;;;;;;40.00;14.85;;;;;;;5.71;100.00;99893.97;5011602;28;20033;-71
2022/12/23 10:06:52;;;;;;;46.53;16.02;;;;;;;5.54;100.00;99894.81;4941420;28;20140;-71
2022/12/23 10:09:18;;;;;;;51.35;17.15;;;;;;;5.49;100.00;99889.97;5007900;28;20037;-70
2022/12/23 10:11:48;;;;;;;34.03;14.70;;;;;;;5.56;100.00;99890.19;5005820;28;20026;-71
2022/12/23 10:14:20;;;;;;;43.65;15.48;;;;;;;5.69;100.00;99898.59;5015108;28;20084;-70
2022/12/23 10:16:54;;;;;;;45.70;16.25;;;;;;;5.72;100.00;99893.81;5027476;28;20037;-74
2022/12/23 10:19:25;;;;;;;45.65;16.48;;;;;;;5.79;100.00;99890.56;5020990;28;20141;-71
2022/12/23 10:21:57;;;;;;;42.10;14.57;;;;;;;5.82;100.00;99885.78;5024411;28;20567;-74
2022/12/23 10:24:30;;;;;;;37.10;16.40;;;;;;;5.95;100.00;99884.59;5006376;28;20038;-73
2022/12/23 10:27:02;;;;;;;33.80;12.73;;;;;;;6.06;100.00;99881.69;5007442;28;20037;-75
2022/12/23 10:29:32;;;;;;;40.08;15.40;;;;;;;6.33;100.00;99881.56;5014047;28;20458;-70
2022/12/23 10:32:31;;;;;;;31.33;14.25;;;;;;;6.65;100.00;99884.53;5010936;28;20013;-73
2022/12/23 10:35:14;;;;;;;35.35;13.10;;;;;;;6.64;100.00;99859.84;5014796;28;20034;-73
2022/12/23 10:38:10;;;;;;;29.75;11.43;;;;;;;6.58;100.00;99844.59;5005655;28;20629;-73
2022/12/23 10:41:07;;;;;;;28.10;11.85;;;;;;;6.52;100.00;99834.59;5013563;28;20068;-71
2022/12/23 10:44:00;;;;;;;25.83;11.38;;;;;;;6.41;100.00;99825.09;5013689;28;20041;-73
2022/12/23 10:46:44;;;;;;;28.35;11.73;;;;;;;6.31;100.00;99817.25;5008623;28;20411;-70
2022/12/23 10:49:59;;;;;;;25.67;11.25;;;;;;;6.40;100.00;99814.66;5011233;28;20040;-73
2022/12/23 10:52:29;;;;;;;31.10;10.93;;;;;;;6.91;100.00;99828.78;5009610;28;20075;-73
2022/12/23 10:54:55;;;;;;;20.50;9.75;;;;;;;7.44;100.00;99824.06;5001084;28;20026;-73
2022/12/23 10:57:22;;;;;;;17.33;8.77;;;;;;;7.80;100.00;99808.66;5016968;28;20557;-73
2022/12/23 10:59:47;;;;;;;19.27;9.68;;;;;;;7.54;100.00;99756.53;5012864;28;20038;-72
2022/12/23 11:02:13;;;;;;;24.03;8.90;;;;;;;7.63;100.00;99748.53;5016407;28;20507;-73
2022/12/23 11:04:41;;;;;;;23.33;9.67;;;;;;;8.11;100.00;99736.16;5016518;28;20546;-73
2022/12/23 11:07:09;;;;;;;19.92;8.55;;;;;;;8.01;100.00;99694.66;5005234;28;20064;-73
2022/12/23 11:09:39;;;;;;;18.00;8.55;;;;;;;8.38;100.00;99685.19;4994901;28;20087;-73
2022/12/23 11:12:08;;;;;;;21.58;9.15;;;;;;;9.19;100.00;99664.34;4987835;28;20446;-74
2022/12/23 11:14:38;;;;;;;15.65;8.23;;;;;;;9.37;100.00;99577.97;5004746;28;20550;-74
2022/12/23 11:17:17;;;;;;;15.30;6.90;;;;;;;9.47;100.00;99511.91;5013709;28;20034;-72
2022/12/23 11:19:42;;;;;;;15.90;7.82;;;;;;;9.79;100.00;99448.56;5013383;28;20144;-72
2022/12/23 11:22:21;;;;;;;16.37;7.37;;;;;;;9.39;100.00;99331.72;5004616;28;20479;-73
2022/12/23 11:24:46;;;;;;;15.00;6.95;;;;;;;9.03;100.00;99263.31;4996982;28;20487;-72
2022/12/23 11:27:14;;;;;;;12.13;5.80;;;;;;;8.58;100.00;99222.69;4986749;28;20152;-74
2022/12/23 11:29:47;;;;;;;22.20;7.05;;;;;;;8.94;100.00;99275.09;4997767;28;20037;-73
2022/12/23 11:32:20;;;;;;;15.75;6.32;;;;;;;9.35;100.00;99266.50;5019090;28;20051;-72
2022/12/23 11:34:47;;;;;;;8.52;4.20;;;;;;;9.43;100.00;99177.66;4981895;28;20854;-69
2022/12/23 11:37:41;;;;;;;9.48;3.75;;;;;;;9.20;100.00;99007.44;5007347;28;20499;-71
2022/12/23 11:40:22;;;;;;;12.45;3.90;;;;;;;8.90;100.00;98967.75;5014358;28;20410;-71
2022/12/23 11:42:47;;;;;;;7.25;3.35;;;;;;;8.35;100.00;98932.94;5013172;28;20097;-71
2022/12/23 11:45:21;;;;;;;8.37;4.23;;;;;;;8.55;100.00;99015.59;5014431;28;20110;-71
2022/12/23 11:47:48;;;;;;;8.98;4.15;;;;;;;8.52;100.00;99026.63;5014594;28;20350;-71
2022/12/23 11:50:19;;;;;;;;;;;;;;;8.59;100.00;99095.81;5016767;28;20037;-71
2022/12/23 11:53:00;;;;;;;13.25;4.93;;;;;;;8.69;100.00;99111.50;4997188;28;19916;-72
2022/12/23 11:55:31;;;;;;;9.85;4.20;;;;;;;8.53;100.00;99038.09;5016215;28;20489;-72